1911 NOT_NAMED (1911042S14145)


IBTrACS version v04r00. Visit IBTrACS website for data access.
Please direct all questions to the IBTrACS Q and A forum

Storm track - Intensity - Wind Radii - Intensity Data - Source Data - All data

Summary Information

Storm ID 1911042S14145
Start Feb 10 23Z
Landfall Feb 11 09Z, Feb 11 12Z, Feb 13 23Z
End Feb 15 23Z
ATCF IDs
Track status Best track data.

Storm track plot

Map of storm track

Intensity plots

No Intensity information for this storm


Radial wind information

No radial wind information for this storm


Position and Intensity Table

BASIN ISO_TIME_________ NATURE LAT LON
degrees north degrees east
SP 1911-02-10 23:00:00 NR -13.60 145.20
SP 1911-02-11 00:00:00 NR -13.74 145.20
SP 03:00:00 NR -14.16 145.20
SP 06:00:00 NR -14.57 145.21
SP 09:00:00 NR -14.96 145.25
SP 11:00:00 NR -15.20 145.30
SP 12:00:00 NR -15.31 145.33
SP 15:00:00 NR -15.63 145.45
SP 18:00:00 NR -15.91 145.61
SP 21:00:00 NR -16.15 145.78
SP 23:00:00 NR -16.30 145.90
SP 1911-02-12 00:00:00 NR -16.37 145.96
SP 03:00:00 NR -16.57 146.13
SP 06:00:00 NR -16.74 146.31
SP 09:00:00 NR -16.90 146.49
SP 11:00:00 NR -17.00 146.60
SP 12:00:00 NR -17.05 146.65
SP 15:00:00 NR -17.18 146.80
SP 18:00:00 NR -17.31 146.94
SP 21:00:00 NR -17.47 147.09
SP 23:00:00 NR -17.60 147.20
SP 1911-02-13 00:00:00 NR -17.68 147.27
SP 03:00:00 NR -17.95 147.49
SP 06:00:00 NR -18.26 147.71
SP 09:00:00 NR -18.58 147.90
SP 11:00:00 NR -18.80 148.00
SP 12:00:00 NR -18.91 148.03
SP 15:00:00 NR -19.24 148.09
SP 18:00:00 NR -19.56 148.11
SP 21:00:00 NR -19.84 148.11
SP 23:00:00 NR -20.00 148.10
SP 1911-02-14 00:00:00 NR -20.07 148.10
SP 03:00:00 NR -20.22 148.11
SP 06:00:00 NR -20.34 148.11
SP 09:00:00 NR -20.44 148.11
SP 11:00:00 NR -20.50 148.10
SP 12:00:00 NR -20.54 148.10
SP 15:00:00 NR -20.66 148.09
SP 18:00:00 NR -20.78 148.06
SP 21:00:00 NR -20.91 148.03
SP 23:00:00 NR -21.00 148.00
SP 1911-02-15 00:00:00 NR -21.05 147.98
SP 03:00:00 NR -21.22 147.93
SP 06:00:00 NR -21.40 147.85
SP 09:00:00 NR -21.58 147.77
SP 11:00:00 NR -21.70 147.70
SP 12:00:00 NR -21.76 147.66
SP 15:00:00 NR -21.91 147.55
SP 18:00:00 NR -22.06 147.42
SP 21:00:00 NR -22.21 147.29
SP 23:00:00 NR -22.30 147.20

Source Information

Agency Information
USA
TOKYO
CMA
HKO
NEWDELHI
REUNION
BOM
NADI
WELLINGTON
DS824
TD9636 cons_worldwide_trop_cyclone_18710101-19891231-006:Line=520
TD9635
NEUMANN
MLC

All available IBTrACS Data

SEASON BASIN SUBBASIN ISO_TIME_________ NATURE LAT LON DIST2LAND LANDFALL IFLAG USA SSHS TD9636 LAT TD9636 LON TD9636 STAGE STORM SPEED STORM DIR
Year degrees north degrees east km km 1 degrees north degrees east kts degrees
1911 SP EA 1911-02-10 23:00:00 NR -13.60 145.20 108 101 __________O___ -1 -13.60 145.20 7 9 185
1911 SP EA 1911-02-11 00:00:00 NR -13.74 145.20 101 72 __________P___ -1 -13.74 145.20 7 9 181
1911 SP EA 03:00:00 NR -14.16 145.20 64 31 __________P___ -1 -14.16 145.20 7 8 0
1911 SP EA 06:00:00 NR -14.57 145.21 31 0 __________P___ -1 -14.57 145.21 7 8 176
1911 SP EA 09:00:00 NR -14.96 145.25 0 0 __________P___ -1 -14.96 145.25 7 8 172
1911 SP EA 11:00:00 NR -15.20 145.30 10 0 __________O___ -1 -15.20 145.30 7 7 167
1911 SP EA 12:00:00 NR -15.31 145.33 0 0 __________P___ -1 -15.31 145.33 7 7 161
1911 SP EA 15:00:00 NR -15.63 145.45 21 15 __________P___ -1 -15.63 145.45 7 7 156
1911 SP EA 18:00:00 NR -15.91 145.61 21 15 __________P___ -1 -15.91 145.61 7 6 149
1911 SP EA 21:00:00 NR -16.15 145.78 32 32 __________P___ -1 -16.15 145.78 7 6 145
1911 SP EA 23:00:00 NR -16.30 145.90 42 42 __________O___ -1 -16.30 145.90 7 6 143
1911 SP EA 1911-02-12 00:00:00 NR -16.37 145.96 54 46 __________P___ -1 -16.37 145.96 7 5 141
1911 SP EA 03:00:00 NR -16.57 146.13 46 46 __________P___ -1 -16.57 146.13 7 5 138
1911 SP EA 06:00:00 NR -16.74 146.31 54 48 __________P___ -1 -16.74 146.31 7 5 134
1911 SP EA 09:00:00 NR -16.90 146.49 64 61 __________P___ -1 -16.90 146.49 7 5 133
1911 SP EA 11:00:00 NR -17.00 146.60 69 69 __________O___ -1 -17.00 146.60 7 4 132
1911 SP EA 12:00:00 NR -17.05 146.65 77 72 __________P___ -1 -17.05 146.65 7 4 132
1911 SP EA 15:00:00 NR -17.18 146.80 77 77 __________P___ -1 -17.18 146.80 7 4 134
1911 SP EA 18:00:00 NR -17.31 146.94 85 85 __________P___ -1 -17.31 146.94 7 4 136
1911 SP EA 21:00:00 NR -17.47 147.09 106 106 __________P___ -1 -17.47 147.09 7 5 140
1911 SP EA 23:00:00 NR -17.60 147.20 116 116 __________O___ -1 -17.60 147.20 7 5 141
1911 SP EA 1911-02-13 00:00:00 NR -17.68 147.27 127 127 __________P___ -1 -17.68 147.27 7 7 142
1911 SP EA 03:00:00 NR -17.95 147.49 143 135 __________P___ -1 -17.95 147.49 7 7 144
1911 SP EA 06:00:00 NR -18.26 147.71 127 103 __________P___ -1 -18.26 147.71 7 7 148
1911 SP EA 09:00:00 NR -18.58 147.90 103 92 __________P___ -1 -18.58 147.90 7 7 153
1911 SP EA 11:00:00 NR -18.80 148.00 92 84 __________O___ -1 -18.80 148.00 7 7 159
1911 SP EA 12:00:00 NR -18.91 148.03 84 71 __________P___ -1 -18.91 148.03 7 7 169
1911 SP EA 15:00:00 NR -19.24 148.09 71 45 __________P___ -1 -19.24 148.09 7 7 173
1911 SP EA 18:00:00 NR -19.56 148.11 38 22 __________P___ -1 -19.56 148.11 7 6 178
1911 SP EA 21:00:00 NR -19.84 148.11 22 0 __________P___ -1 -19.84 148.11 7 5 0
1911 SP EA 23:00:00 NR -20.00 148.10 0 0 __________O___ -1 -20.00 148.10 7 5 0
1911 SP EA 1911-02-14 00:00:00 NR -20.07 148.10 0 0 __________P___ -1 -20.07 148.10 7 3 0
1911 SP EA 03:00:00 NR -20.22 148.11 0 0 __________P___ -1 -20.22 148.11 7 3 174
1911 SP EA 06:00:00 NR -20.34 148.11 0 0 __________P___ -1 -20.34 148.11 7 2 0
1911 SP EA 09:00:00 NR -20.44 148.11 0 0 __________P___ -1 -20.44 148.11 7 2 187
1911 SP EA 11:00:00 NR -20.50 148.10 0 0 __________O___ -1 -20.50 148.10 7 2 186
1911 SP EA 12:00:00 NR -20.54 148.10 0 0 __________P___ -1 -20.54 148.10 7 2 190
1911 SP EA 15:00:00 NR -20.66 148.09 0 0 __________P___ -1 -20.66 148.09 7 2 191
1911 SP EA 18:00:00 NR -20.78 148.06 0 0 __________P___ -1 -20.78 148.06 7 3 193
1911 SP EA 21:00:00 NR -20.91 148.03 0 0 __________P___ -1 -20.91 148.03 7 3 194
1911 SP EA 23:00:00 NR -21.00 148.00 0 0 __________O___ -1 -21.00 148.00 7 3 196
1911 SP EA 1911-02-15 00:00:00 NR -21.05 147.98 0 0 __________P___ -1 -21.05 147.98 7 4 198
1911 SP EA 03:00:00 NR -21.22 147.93 0 0 __________P___ -1 -21.22 147.93 7 4 198
1911 SP EA 06:00:00 NR -21.40 147.85 0 0 __________P___ -1 -21.40 147.85 7 4 202
1911 SP EA 09:00:00 NR -21.58 147.77 0 0 __________P___ -1 -21.58 147.77 7 4 205
1911 SP EA 11:00:00 NR -21.70 147.70 0 0 __________O___ -1 -21.70 147.70 7 4 210
1911 SP EA 12:00:00 NR -21.76 147.66 0 0 __________P___ -1 -21.76 147.66 7 4 213
1911 SP EA 15:00:00 NR -21.91 147.55 0 0 __________P___ -1 -21.91 147.55 7 4 216
1911 SP EA 18:00:00 NR -22.06 147.42 0 0 __________P___ -1 -22.06 147.42 7 4 219
1911 SP EA 21:00:00 NR -22.21 147.29 0 0 __________P___ -1 -22.21 147.29 7 4 221
1911 SP EA 23:00:00 NR -22.30 147.20 0 __________O___ -1 -22.30 147.20 7 4 222